createdAt,value
2018-04-25T00:00:52.665Z,11.74
2018-04-25T00:03:20.325Z,11.73
2018-04-25T00:05:47.797Z,11.69
2018-04-25T00:08:15.272Z,11.69
2018-04-25T00:10:42.786Z,11.55
2018-04-25T00:13:10.292Z,11.59
2018-04-25T00:15:37.999Z,11.39
2018-04-25T00:18:05.497Z,11.32
2018-04-25T00:20:32.976Z,11.70
2018-04-25T00:23:00.476Z,11.35
2018-04-25T00:25:27.952Z,11.34
2018-04-25T00:27:55.461Z,11.28
2018-04-25T00:30:22.934Z,11.27
2018-04-25T00:32:50.441Z,11.26
2018-04-25T00:35:17.941Z,11.29
2018-04-25T00:37:45.421Z,11.17
2018-04-25T00:40:13.309Z,11.27
2018-04-25T00:42:40.787Z,11.07
2018-04-25T00:45:08.275Z,11.11
2018-04-25T00:47:35.792Z,11.03
2018-04-25T00:50:03.265Z,11.03
2018-04-25T00:52:31.046Z,10.83
2018-04-25T00:54:58.529Z,10.80
2018-04-25T00:57:26.004Z,10.79
2018-04-25T00:59:53.529Z,11.03
2018-04-25T01:02:21.025Z,10.63
2018-04-25T01:04:48.549Z,10.47
2018-04-25T01:07:16.034Z,10.62
2018-04-25T01:09:43.513Z,10.70
2018-04-25T01:12:11.021Z,10.63
2018-04-25T01:14:38.506Z,10.85
2018-04-25T01:17:06.028Z,10.77
2018-04-25T01:19:33.517Z,10.57
2018-04-25T01:22:01.015Z,10.53
2018-04-25T01:24:28.516Z,10.51
2018-04-25T01:27:10.890Z,10.28
2018-04-25T01:29:39.200Z,10.29
2018-04-25T01:32:07.585Z,10.24
2018-04-25T01:34:46.640Z,10.28
2018-04-25T01:40:28.936Z,10.09
2018-04-25T01:42:57.989Z,10.07
2018-04-25T01:48:29.189Z,10.29
2018-04-25T01:50:58.038Z,10.12
2018-04-25T01:53:37.212Z,10.09
2018-04-25T01:56:16.345Z,10.14
2018-04-25T01:58:55.841Z,10.08
2018-04-25T02:01:22.804Z,9.89
2018-04-25T02:03:55.241Z,10.10
2018-04-25T02:06:22.766Z,9.97
2018-04-25T02:08:50.236Z,9.89
2018-04-25T02:11:17.741Z,9.86
2018-04-25T02:13:45.424Z,9.71
2018-04-25T02:16:12.941Z,9.68
2018-04-25T02:18:40.425Z,9.71
2018-04-25T02:21:07.933Z,9.71
2018-04-25T02:23:35.449Z,9.75
2018-04-25T02:26:02.917Z,9.95
2018-04-25T02:28:30.561Z,9.94
2018-04-25T02:30:58.033Z,9.62
2018-04-25T02:33:25.517Z,9.53
2018-04-25T02:35:53.020Z,9.63
2018-04-25T02:38:20.493Z,9.50
2018-04-25T02:40:47.984Z,9.80
2018-04-25T02:43:15.683Z,9.78
2018-04-25T02:45:45.006Z,9.60
2018-04-25T02:48:12.492Z,9.39
2018-04-25T02:50:40.275Z,9.57
2018-04-25T02:53:07.756Z,9.63
2018-04-25T02:55:35.241Z,9.84
2018-04-25T02:58:02.955Z,9.92
2018-04-25T03:00:30.431Z,9.99
2018-04-25T03:02:57.902Z,9.99
2018-04-25T03:05:25.705Z,10.22
2018-04-25T03:07:53.181Z,9.93
2018-04-25T03:10:20.656Z,10.02
2018-04-25T03:12:48.188Z,9.87
2018-04-25T03:15:15.665Z,9.80
2018-04-25T03:17:43.150Z,9.60
2018-04-25T03:20:10.677Z,9.59
2018-04-25T03:22:38.233Z,9.63
2018-04-25T03:25:05.657Z,9.59
2018-04-25T03:27:33.304Z,9.45
2018-04-25T03:30:00.788Z,9.39
2018-04-25T03:32:28.257Z,9.57
2018-04-25T03:34:55.768Z,9.27
2018-04-25T03:37:23.240Z,9.47
2018-04-25T03:39:50.745Z,9.48
2018-04-25T03:42:18.253Z,9.46
2018-04-25T03:44:45.761Z,9.48
2018-04-25T03:47:13.284Z,9.55
2018-04-25T03:49:40.758Z,9.46
2018-04-25T03:52:08.233Z,9.52
2018-04-25T03:54:35.752Z,9.47
2018-04-25T03:57:03.221Z,9.28
2018-04-25T03:59:30.825Z,9.65
2018-04-25T04:01:58.317Z,9.68
2018-04-25T04:04:25.789Z,9.62
2018-04-25T04:06:53.293Z,9.56
2018-04-25T04:09:20.776Z,9.78
2018-04-25T04:11:48.620Z,9.57
2018-04-25T04:14:16.093Z,9.63
2018-04-25T04:16:43.563Z,9.55
2018-04-25T04:19:11.060Z,9.63
2018-04-25T04:21:38.564Z,9.48
2018-04-25T04:24:06.089Z,9.34
2018-04-25T04:26:33.562Z,9.44
2018-04-25T04:29:01.037Z,9.40
2018-04-25T04:31:28.540Z,9.51
2018-04-25T04:33:56.017Z,9.65
2018-04-25T04:36:23.685Z,9.63
2018-04-25T04:38:51.153Z,9.76
2018-04-25T04:41:18.621Z,9.78
2018-04-25T04:43:46.145Z,9.66
2018-04-25T04:46:13.637Z,9.88
2018-04-25T04:48:41.452Z,9.87
2018-04-25T04:51:08.958Z,9.98
2018-04-25T04:53:36.441Z,10.19
2018-04-25T04:56:03.964Z,10.21
2018-04-25T04:58:31.453Z,10.32
2018-04-25T05:00:59.052Z,10.27
2018-04-25T05:03:26.529Z,10.70
2018-04-25T05:05:54.024Z,11.37
2018-04-25T05:08:21.688Z,11.49
2018-04-25T05:10:49.153Z,12.44
2018-04-25T05:13:16.853Z,12.45
2018-04-25T05:15:44.345Z,13.12
2018-04-25T05:18:11.845Z,13.47
2018-04-25T05:20:39.341Z,13.87
2018-04-25T05:23:06.821Z,14.20
2018-04-25T05:25:34.612Z,14.35
2018-04-25T05:28:02.089Z,14.92
2018-04-25T05:30:29.586Z,15.47
2018-04-25T05:32:57.085Z,15.53
2018-04-25T05:35:24.583Z,15.50
2018-04-25T05:37:52.273Z,15.19
2018-04-25T05:40:19.760Z,14.89
2018-04-25T05:42:47.241Z,14.63
2018-04-25T05:45:14.744Z,14.36
2018-04-25T05:47:42.257Z,14.02
2018-04-25T05:50:09.784Z,14.20
2018-04-25T05:52:37.256Z,14.13
2018-04-25T05:55:04.742Z,13.97
2018-04-25T05:57:32.255Z,14.01
2018-04-25T05:59:59.753Z,14.00
2018-04-25T06:02:27.377Z,14.05
2018-04-25T06:04:54.854Z,14.08
2018-04-25T06:07:22.341Z,14.17
2018-04-25T06:09:49.845Z,14.34
2018-04-25T06:12:17.392Z,14.67
2018-04-25T06:14:45.029Z,14.69
2018-04-25T06:17:12.517Z,14.65
2018-04-25T06:19:40.004Z,14.67
2018-04-25T06:22:07.517Z,14.68
2018-04-25T06:24:35.000Z,14.76
2018-04-25T06:27:02.537Z,14.61
2018-04-25T06:29:30.024Z,14.80
2018-04-25T06:31:57.517Z,15.21
2018-04-25T06:34:25.025Z,15.84
2018-04-25T06:36:52.501Z,16.04
2018-04-25T06:39:20.023Z,16.43
2018-04-25T06:41:47.538Z,16.03
2018-04-25T06:44:15.037Z,16.04
2018-04-25T06:46:42.548Z,16.32
2018-04-25T06:49:10.030Z,16.73
2018-04-25T06:51:37.816Z,17.06
2018-04-25T06:54:05.305Z,17.24
2018-04-25T06:56:32.788Z,16.87
2018-04-25T06:59:00.334Z,17.21
2018-04-25T07:01:27.815Z,17.11
2018-04-25T07:03:55.328Z,17.30
2018-04-25T07:06:22.824Z,17.48
2018-04-25T07:08:50.320Z,17.50
2018-04-25T07:11:17.836Z,17.53
2018-04-25T07:13:45.321Z,17.47
2018-04-25T07:16:12.833Z,17.33
2018-04-25T07:18:40.326Z,17.51
2018-04-25T07:21:07.801Z,17.50
2018-04-25T07:23:35.306Z,17.62
2018-04-25T07:26:02.788Z,17.61
2018-04-25T07:28:30.449Z,17.57
2018-04-25T07:30:57.924Z,17.85
2018-04-25T07:33:25.406Z,17.75
2018-04-25T07:35:52.909Z,17.70
2018-04-25T07:38:20.413Z,17.50
2018-04-25T07:40:48.055Z,17.61
2018-04-25T07:43:15.528Z,17.40
2018-04-25T07:45:43.026Z,17.75
2018-04-25T07:48:10.533Z,17.46
2018-04-25T07:50:38.036Z,17.81
2018-04-25T07:53:05.545Z,17.39
2018-04-25T07:55:33.028Z,17.64
2018-04-25T07:58:00.515Z,17.88
2018-04-25T08:00:28.026Z,17.84
2018-04-25T08:02:55.549Z,17.74
2018-04-25T08:05:23.078Z,18.20
2018-04-25T08:07:50.585Z,18.14
2018-04-25T08:10:18.069Z,17.89
2018-04-25T08:12:57.541Z,17.81
2018-04-25T08:15:36.874Z,17.70
2018-04-25T08:18:16.068Z,17.92
2018-04-25T08:20:55.433Z,17.82
2018-04-25T08:23:22.957Z,18.01
2018-04-25T08:25:50.453Z,17.79
2018-04-25T08:28:17.970Z,17.62
2018-04-25T08:30:45.450Z,17.69
2018-04-25T08:33:12.964Z,17.58
2018-04-25T08:35:40.481Z,17.79
2018-04-25T08:38:07.960Z,18.01
2018-04-25T08:40:35.614Z,17.71
2018-04-25T08:43:03.092Z,17.74
2018-04-25T08:45:30.588Z,17.81
2018-04-25T08:47:58.102Z,18.07
2018-04-25T08:50:25.589Z,17.97
2018-04-25T08:52:53.107Z,18.06
2018-04-25T08:55:20.585Z,18.25
2018-04-25T08:57:48.072Z,18.40
2018-04-25T09:00:15.575Z,18.46
2018-04-25T09:02:43.093Z,18.47
2018-04-25T09:05:10.927Z,18.36
2018-04-25T09:07:38.433Z,18.54
2018-04-25T09:10:05.923Z,18.58
2018-04-25T09:12:33.432Z,18.60
2018-04-25T09:15:00.911Z,18.28
2018-04-25T09:17:28.688Z,18.54
2018-04-25T09:19:56.176Z,18.38
2018-04-25T09:22:23.669Z,18.12
2018-04-25T09:24:51.192Z,18.20
2018-04-25T09:27:18.686Z,18.49
2018-04-25T09:29:46.209Z,18.32
2018-04-25T09:32:13.688Z,18.33
2018-04-25T09:34:41.181Z,18.56
2018-04-25T09:37:08.689Z,18.78
2018-04-25T09:39:36.168Z,19.08
2018-04-25T09:42:03.897Z,19.30
2018-04-25T09:44:31.378Z,19.26
2018-04-25T09:46:58.857Z,19.11
2018-04-25T09:49:26.377Z,19.00
2018-04-25T09:51:53.907Z,18.64
2018-04-25T09:54:21.541Z,19.06
2018-04-25T09:56:49.025Z,19.06
2018-04-25T09:59:16.501Z,19.42
2018-04-25T10:01:43.997Z,19.38
2018-04-25T10:04:11.472Z,19.41
2018-04-25T10:06:38.970Z,19.16
2018-04-25T10:09:06.445Z,19.40
2018-04-25T10:11:34.160Z,18.94
2018-04-25T10:14:01.648Z,19.10
2018-04-25T10:16:29.129Z,19.06
2018-04-25T10:18:56.640Z,18.57
2018-04-25T10:21:24.120Z,18.63
2018-04-25T10:23:52.101Z,18.57
2018-04-25T10:26:19.585Z,18.31
2018-04-25T10:28:47.070Z,18.20
2018-04-25T10:31:14.584Z,18.03
2018-04-25T10:33:42.060Z,18.23
2018-04-25T10:36:10.094Z,18.26
2018-04-25T10:38:37.573Z,18.21
2018-04-25T10:41:05.058Z,18.19
2018-04-25T10:43:32.598Z,18.37
2018-04-25T10:46:00.087Z,18.22
2018-04-25T10:48:27.860Z,18.31
2018-04-25T10:50:55.369Z,18.31
2018-04-25T10:53:22.844Z,18.20
2018-04-25T10:55:50.345Z,18.30
2018-04-25T10:58:17.825Z,18.25
2018-04-25T11:00:45.515Z,18.60
2018-04-25T11:03:12.989Z,18.34
2018-04-25T11:05:40.465Z,18.74
2018-04-25T11:08:07.961Z,18.90
2018-04-25T11:10:35.477Z,18.69
2018-04-25T11:13:03.233Z,18.38
2018-04-25T11:15:30.721Z,17.99
2018-04-25T11:17:58.201Z,18.36
2018-04-25T11:20:25.785Z,18.58
2018-04-25T11:22:53.224Z,18.89
2018-04-25T11:25:20.992Z,18.36
2018-04-25T11:27:48.473Z,18.61
2018-04-25T11:30:15.976Z,18.56
2018-04-25T11:32:43.489Z,18.33
2018-04-25T11:35:10.964Z,18.49
2018-04-25T11:37:38.648Z,18.69
2018-04-25T11:40:06.142Z,18.43
2018-04-25T11:42:33.640Z,18.40
2018-04-25T11:45:01.137Z,18.24
2018-04-25T11:47:28.633Z,18.30
2018-04-25T11:49:56.375Z,18.47
2018-04-25T11:52:23.885Z,18.10
2018-04-25T11:54:57.297Z,18.00
2018-04-25T11:57:24.779Z,18.10
2018-04-25T11:59:52.259Z,18.30
2018-04-25T12:02:19.822Z,18.19
2018-04-25T12:04:47.324Z,18.30
2018-04-25T12:07:14.937Z,18.23
2018-04-25T12:09:42.417Z,18.39
2018-04-25T12:12:09.898Z,18.27
2018-04-25T12:14:37.394Z,18.42
2018-04-25T12:17:04.869Z,18.30
2018-04-25T12:19:32.593Z,18.03
2018-04-25T12:22:00.078Z,18.14
2018-04-25T12:24:27.617Z,18.20
2018-04-25T12:26:55.102Z,18.09
2018-04-25T12:29:22.591Z,18.52
2018-04-25T12:31:50.353Z,18.18
2018-04-25T12:34:17.829Z,18.17
2018-04-25T12:36:45.309Z,18.26
2018-04-25T12:39:12.813Z,18.34
2018-04-25T12:41:40.363Z,18.30
2018-04-25T12:44:08.213Z,18.13
2018-04-25T12:46:35.706Z,18.37
2018-04-25T12:49:03.195Z,18.54
2018-04-25T12:51:30.696Z,18.51
2018-04-25T12:53:58.195Z,18.70
2018-04-25T12:56:25.707Z,18.71
2018-04-25T12:58:53.188Z,18.54
2018-04-25T13:01:20.675Z,18.37
2018-04-25T13:03:48.183Z,17.85
2018-04-25T13:06:15.661Z,18.21
2018-04-25T13:08:43.341Z,17.90
2018-04-25T13:11:10.824Z,18.07
2018-04-25T13:13:38.313Z,17.67
2018-04-25T13:16:05.850Z,17.59
2018-04-25T13:18:33.322Z,17.60
2018-04-25T13:21:01.073Z,17.46
2018-04-25T13:23:28.553Z,17.46
2018-04-25T13:25:56.029Z,17.37
2018-04-25T13:28:23.533Z,17.48
2018-04-25T13:30:51.015Z,17.38
2018-04-25T13:33:18.833Z,17.29
2018-04-25T13:35:46.308Z,17.27
2018-04-25T13:38:13.804Z,17.29
2018-04-25T13:40:41.309Z,17.13
2018-04-25T13:43:08.810Z,17.24
2018-04-25T13:45:36.345Z,17.50
2018-04-25T13:48:03.828Z,17.78
2018-04-25T13:50:31.454Z,17.92
2018-04-25T13:52:58.936Z,17.90
2018-04-25T13:55:26.409Z,17.98
2018-04-25T13:57:53.916Z,18.18
2018-04-25T14:00:21.394Z,18.25
2018-04-25T14:02:49.076Z,18.38
2018-04-25T14:05:16.586Z,18.75
2018-04-25T14:07:44.068Z,18.43
2018-04-25T14:10:11.605Z,18.34
2018-04-25T14:12:39.090Z,18.45
2018-04-25T14:15:06.598Z,18.36
2018-04-25T14:17:34.134Z,18.11
2018-04-25T14:20:01.666Z,17.78
2018-04-25T14:22:29.146Z,17.49
2018-04-25T14:24:56.645Z,17.34
2018-04-25T14:27:24.183Z,17.19
2018-04-25T14:29:51.661Z,17.05
2018-04-25T14:32:19.164Z,17.39
2018-04-25T14:34:46.649Z,17.04
2018-04-25T14:37:14.281Z,17.03
2018-04-25T14:39:41.781Z,16.99
2018-04-25T14:42:09.281Z,16.83
2018-04-25T14:44:36.781Z,16.70
2018-04-25T14:47:04.294Z,16.63
2018-04-25T14:49:31.801Z,16.37
2018-04-25T14:51:59.318Z,16.25
2018-04-25T14:54:26.846Z,16.21
2018-04-25T14:56:54.325Z,16.11
2018-04-25T14:59:22.121Z,16.38
2018-04-25T15:01:49.605Z,16.47
2018-04-25T15:04:17.100Z,16.32
2018-04-25T15:09:11.576Z,16.30
2018-04-25T15:11:39.086Z,16.07
2018-04-25T15:14:06.573Z,16.06
2018-04-25T15:16:34.092Z,16.05
2018-04-25T15:19:01.572Z,15.95
2018-04-25T15:21:29.068Z,15.95
2018-04-25T15:23:56.565Z,16.11
2018-04-25T15:26:24.081Z,16.32
2018-04-25T15:28:51.640Z,16.36
2018-04-25T15:31:19.121Z,16.30
2018-04-25T15:33:46.606Z,16.27
2018-04-25T15:36:14.113Z,16.30
2018-04-25T15:38:41.600Z,16.34
2018-04-25T15:41:09.119Z,16.30
2018-04-25T15:43:36.612Z,16.38
2018-04-25T15:46:04.133Z,16.33
2018-04-25T15:48:31.612Z,16.20
2018-04-25T15:50:59.092Z,16.36
2018-04-25T15:53:26.662Z,16.61
2018-04-25T15:55:54.102Z,16.41
2018-04-25T15:58:21.716Z,16.27
2018-04-25T16:00:49.203Z,16.36
2018-04-25T16:03:16.716Z,16.56
2018-04-25T16:05:44.225Z,16.63
2018-04-25T16:08:11.727Z,16.66
2018-04-25T16:10:39.230Z,16.93
2018-04-25T16:13:06.724Z,17.14
2018-04-25T16:15:34.239Z,17.23
2018-04-25T16:18:01.720Z,17.14
2018-04-25T16:20:29.237Z,17.17
2018-04-25T16:22:56.765Z,17.23
2018-04-25T16:25:24.221Z,17.24
2018-04-25T16:27:51.737Z,17.11
2018-04-25T16:30:19.217Z,16.95
2018-04-25T16:32:47.001Z,17.18
2018-04-25T16:35:14.478Z,16.87
2018-04-25T16:37:41.958Z,16.92
2018-04-25T16:40:09.505Z,16.92
2018-04-25T16:42:36.989Z,16.80
2018-04-25T16:45:04.493Z,16.72
2018-04-25T16:47:31.979Z,16.62
2018-04-25T16:49:59.701Z,16.48
2018-04-25T16:52:27.197Z,16.50
2018-04-25T16:54:54.689Z,16.60
2018-04-25T16:57:22.204Z,16.54
2018-04-25T16:59:49.698Z,16.48
2018-04-25T17:02:17.228Z,16.35
2018-04-25T17:04:44.732Z,16.56
2018-04-25T17:07:12.417Z,16.29
2018-04-25T17:09:39.998Z,16.13
2018-04-25T17:12:07.441Z,16.10
2018-04-25T17:14:34.946Z,16.37
2018-04-25T17:17:02.462Z,16.04
2018-04-25T17:19:29.979Z,15.87
2018-04-25T17:21:57.485Z,15.96
2018-04-25T17:24:25.211Z,15.96
2018-04-25T17:26:52.723Z,15.80
2018-04-25T17:29:20.217Z,15.94
2018-04-25T17:31:47.747Z,15.94
2018-04-25T17:34:15.272Z,15.78
2018-04-25T17:36:42.807Z,15.76
2018-04-25T17:39:10.311Z,15.98
2018-04-25T17:41:38.307Z,15.75
2018-04-25T17:44:05.801Z,16.07
2018-04-25T17:46:33.293Z,15.77
2018-04-25T17:49:00.820Z,15.80
2018-04-25T17:51:28.401Z,15.88
2018-04-25T17:53:55.929Z,15.97
2018-04-25T17:56:23.441Z,15.91
2018-04-25T17:58:51.095Z,15.87
2018-04-25T18:01:18.638Z,15.84
2018-04-25T18:03:46.142Z,15.90
2018-04-25T18:06:13.705Z,15.86
2018-04-25T18:08:41.242Z,15.80
2018-04-25T18:11:08.772Z,15.64
2018-04-25T18:13:36.303Z,15.68
2018-04-25T18:16:04.822Z,15.66
2018-04-25T18:18:32.337Z,15.53
2018-04-25T18:20:59.817Z,15.40
2018-04-25T18:23:27.372Z,15.31
2018-04-25T18:25:54.856Z,15.31
2018-04-25T18:28:22.608Z,15.24
2018-04-25T18:30:50.151Z,15.47
2018-04-25T18:33:17.773Z,15.44
2018-04-25T18:35:45.621Z,15.38
2018-04-25T18:38:13.716Z,15.25
2018-04-25T18:40:41.585Z,15.15
2018-04-25T18:43:09.474Z,15.12
2018-04-25T18:45:37.553Z,15.29
2018-04-25T18:48:05.434Z,15.19
2018-04-25T18:50:33.101Z,15.35
2018-04-25T18:53:00.903Z,15.25
2018-04-25T18:55:28.533Z,15.17
2018-04-25T18:57:56.327Z,15.49
2018-04-25T19:00:24.348Z,15.00
2018-04-25T19:02:52.599Z,15.04
2018-04-25T19:05:20.594Z,15.04
2018-04-25T19:07:48.784Z,15.10
2018-04-25T19:10:17.031Z,15.18
2018-04-25T19:12:45.969Z,15.40
2018-04-25T19:15:14.274Z,15.04
2018-04-25T19:17:42.436Z,15.08
2018-04-25T19:20:10.827Z,14.86
2018-04-25T19:22:38.884Z,14.84
2018-04-25T19:25:06.763Z,14.85
2018-04-25T19:27:35.168Z,14.95
2018-04-25T19:30:03.176Z,15.01
2018-04-25T19:32:31.901Z,15.03
2018-04-25T19:35:00.710Z,14.93
2018-04-25T19:37:28.943Z,14.94
2018-04-25T19:39:58.521Z,14.88
2018-04-25T19:42:26.897Z,15.00
2018-04-25T19:44:55.380Z,14.97
2018-04-25T19:47:23.963Z,14.89
2018-04-25T19:49:52.558Z,14.80
2018-04-25T19:52:20.948Z,14.90
2018-04-25T19:54:49.205Z,14.79
2018-04-25T19:57:18.000Z,14.89
2018-04-25T19:59:46.206Z,14.55
2018-04-25T20:02:14.262Z,14.56
2018-04-25T20:04:42.675Z,14.64
2018-04-25T20:07:12.114Z,14.52
2018-04-25T20:09:39.992Z,14.44
2018-04-25T20:12:08.300Z,14.45
2018-04-25T20:14:35.938Z,14.63
2018-04-25T20:17:03.832Z,14.48
2018-04-25T20:19:31.599Z,14.46
2018-04-25T20:22:00.109Z,14.41
2018-04-25T20:24:27.638Z,14.36
2018-04-25T20:26:55.150Z,14.13
2018-04-25T20:29:23.381Z,14.27
2018-04-25T20:31:50.882Z,14.05
2018-04-25T20:34:18.396Z,14.28
2018-04-25T20:36:45.947Z,13.88
2018-04-25T20:39:13.441Z,13.99
2018-04-25T20:41:40.962Z,13.79
2018-04-25T20:44:08.463Z,14.00
2018-04-25T20:46:35.943Z,13.71
2018-04-25T20:49:03.493Z,14.00
2018-04-25T20:51:31.051Z,13.76
2018-04-25T20:53:58.616Z,13.73
2018-04-25T20:56:26.105Z,13.65
2018-04-25T20:58:53.655Z,13.69
2018-04-25T21:01:21.149Z,13.48
2018-04-25T21:03:48.646Z,13.61
2018-04-25T21:06:16.205Z,13.62
2018-04-25T21:08:43.765Z,13.71
2018-04-25T21:11:11.366Z,13.26
2018-04-25T21:13:38.813Z,13.36
2018-04-25T21:16:06.467Z,13.31
2018-04-25T21:18:33.950Z,13.19
2018-04-25T21:21:01.430Z,13.22
2018-04-25T21:23:28.938Z,13.23
2018-04-25T21:25:56.417Z,13.06
2018-04-25T21:28:23.936Z,13.57
2018-04-25T21:30:51.427Z,13.49
2018-04-25T21:33:18.930Z,13.52
2018-04-25T21:35:46.445Z,13.19
2018-04-25T21:38:13.925Z,13.30
2018-04-25T21:40:41.432Z,13.11
2018-04-25T21:43:08.921Z,12.99
2018-04-25T21:45:36.599Z,13.22
2018-04-25T21:48:04.105Z,13.31
2018-04-25T21:50:31.581Z,13.23
2018-04-25T21:52:59.089Z,13.06
2018-04-25T21:55:26.573Z,12.89
2018-04-25T21:57:54.108Z,12.71
2018-04-25T22:00:21.638Z,12.51
2018-04-25T22:02:49.198Z,12.65
2018-04-25T22:05:16.747Z,12.86
2018-04-25T22:07:44.296Z,12.34
2018-04-25T22:10:11.839Z,12.75
2018-04-25T22:12:39.362Z,12.53
2018-04-25T22:15:06.919Z,12.62
2018-04-25T22:17:34.468Z,12.59
2018-04-25T22:20:02.017Z,12.41
2018-04-25T22:22:29.578Z,12.18
2018-04-25T22:24:57.132Z,12.11
2018-04-25T22:27:24.830Z,12.04
2018-04-25T22:29:52.351Z,11.94
2018-04-25T22:32:19.873Z,11.75
2018-04-25T22:34:47.456Z,11.62
2018-04-25T22:37:14.971Z,11.43
2018-04-25T22:39:42.518Z,11.32
2018-04-25T22:42:10.038Z,11.24
2018-04-25T22:44:37.838Z,10.96
2018-04-25T22:47:05.358Z,10.83
2018-04-25T22:49:32.875Z,10.70
2018-04-25T22:52:00.423Z,10.66
2018-04-25T22:54:27.948Z,10.61
2018-04-25T22:56:55.695Z,10.50
2018-04-25T22:59:23.222Z,10.32
2018-04-25T23:01:50.743Z,10.40
2018-04-25T23:04:18.322Z,10.08
2018-04-25T23:06:45.843Z,10.09
2018-04-25T23:09:13.397Z,10.07
2018-04-25T23:11:40.915Z,9.77
2018-04-25T23:14:08.717Z,9.75
2018-04-25T23:16:36.235Z,9.64
2018-04-25T23:19:03.755Z,9.60
2018-04-25T23:21:31.322Z,9.70
2018-04-25T23:23:58.835Z,9.50
2018-04-25T23:26:26.467Z,9.31
2018-04-25T23:28:53.982Z,9.25
2018-04-25T23:31:21.515Z,9.44
2018-04-25T23:33:49.075Z,9.21
2018-04-25T23:36:16.599Z,9.47
2018-04-25T23:38:44.524Z,9.35
2018-04-25T23:41:12.055Z,9.34
2018-04-25T23:43:39.566Z,9.10
2018-04-25T23:46:07.108Z,9.17
2018-04-25T23:48:34.625Z,9.32
2018-04-25T23:51:02.166Z,9.38
2018-04-25T23:53:29.709Z,9.36
2018-04-25T23:55:57.264Z,9.53
2018-04-25T23:58:24.790Z,10.10
